Impacts METAR Board
IDs:

KSLC - Salt Lake City Intl, UT, US

Updated at: 1300 UTC 07 Jul 2020
Potential Impact None Slight Moderate High
Time 07/01Z 07/02Z 07/03Z 07/04Z 07/05Z 07/06Z 07/07Z 07/08Z 07/09Z 07/10Z 07/11Z 07/12Z 07/13Z
Temp96 93 89 85 84 83 80 84 85 83 82 80 80
Dewpt37 44 45 41 41 41 40 33 28 28 28 26 28
Altim29.85 29.83 29.82 29.81 29.81 29.82 29.82 29.83 29.82 29.82 29.83 29.84 29.85
VIS10 10 10 10 10 10 10 10 10 10 10 10 10
CIG-- -- -- -- -- -- -- -- -- -- -- -- --
CoverFEWFEWFEWFEWFEWSCTSCTFEWCLRCLRCLRFEWFEW
FltCatVFRVFRVFRVFRVFRVFRVFRVFRVFRVFRVFRVFRVFR
WX--------------------------
WDir2036040160160140130150160160160170170
WSpd7 9 6 8 10 11 10 16 15 17 14 12 14
WGst-- -- -- -- -- -- -- -- 23 -- -- -- 20
Raw hourly METARs
KSLC 070054Z 02007KT 10SM FEW110 36/03 A2985 RMK AO2 SLP043 T03560028
KSLC 070154Z 36009KT 10SM FEW110 34/07 A2983 RMK AO2 SLP037 T03390067
KSLC 070254Z 04006KT 10SM FEW110 32/07 A2982 RMK AO2 SLP031 T03170072 56017
KSLC 070354Z 16008KT 10SM FEW100 29/05 A2981 RMK AO2 SLP028 T02940050
KSLC 070454Z 16010KT 10SM FEW100 29/05 A2981 RMK AO2 SLP029 T02890050
KSLC 070554Z 14011KT 10SM FEW100 SCT180 28/05 A2982 RMK AO2 SLP029 T02830050 10361 20278 53001
KSLC 070654Z 13010KT 10SM SCT180 27/04 A2982 RMK AO2 SLP030 T02670044 403610183
KSLC 070754Z 15016KT 10SM FEW180 29/01 A2983 RMK AO2 SLP029 T02890006
KSLC 070854Z 16015G23KT 10SM CLR 29/M02 A2982 RMK AO2 SLP026 T02941022 50001
KSLC 070954Z 16017KT 10SM CLR 28/M02 A2982 RMK AO2 SLP025 T02831022
KSLC 071054Z 16014KT 10SM CLR 28/M02 A2983 RMK AO2 SLP028 T02781022
KSLC 071154Z 17012KT 10SM FEW080 27/M03 A2984 RMK AO2 SLP034 T02671033 10294 20267 53005
KSLC 071254Z 17014G20KT 10SM FEW080 27/M02 A2985 RMK AO2 SLP037 T02671022



Page loaded:  13:44 UTC  |   06:44 AM Pacific  |   07:44 AM Mountain  |   08:44 AM Central  |   09:44 AM Eastern

 

ADVISORIES

FORECASTS

FORECASTS

OBSERVATIONS

USER TOOLS

ABOUT US